createdAt,value
2023-02-03T00:00:52.926Z,5.48
2023-02-03T00:01:53.004Z,5.48
2023-02-03T00:02:52.862Z,5.48
2023-02-03T00:03:52.816Z,5.48
2023-02-03T00:04:52.796Z,5.48
2023-02-03T00:05:52.781Z,5.47
2023-02-03T00:06:52.763Z,5.47
2023-02-03T00:07:52.781Z,5.47
2023-02-03T00:08:52.742Z,5.45
2023-02-03T00:09:52.736Z,5.45
2023-02-03T00:10:52.731Z,5.42
2023-02-03T00:11:52.742Z,5.44
2023-02-03T00:12:53.360Z,5.42
2023-02-03T00:13:52.718Z,5.42
2023-02-03T00:14:52.744Z,5.42
2023-02-03T00:15:52.715Z,5.41
2023-02-03T00:16:52.657Z,5.38
2023-02-03T00:17:52.659Z,5.40
2023-02-03T00:18:52.649Z,5.41
2023-02-03T00:19:52.638Z,5.42
2023-02-03T00:20:52.611Z,5.41
2023-02-03T00:21:52.609Z,5.41
2023-02-03T00:22:52.591Z,5.40
2023-02-03T00:23:52.587Z,5.41
2023-02-03T00:24:52.590Z,5.41
2023-02-03T00:25:52.586Z,5.41
2023-02-03T00:26:52.550Z,5.41
2023-02-03T00:27:52.577Z,5.41
2023-02-03T00:28:52.530Z,5.41
2023-02-03T00:29:52.536Z,5.42
2023-02-03T00:30:52.522Z,5.40
2023-02-03T00:31:52.631Z,5.41
2023-02-03T00:32:52.489Z,5.42
2023-02-03T00:33:52.482Z,5.42
2023-02-03T00:34:52.521Z,5.42
2023-02-03T00:35:52.548Z,5.42
2023-02-03T00:36:52.465Z,5.44
2023-02-03T00:37:52.478Z,5.42
2023-02-03T00:38:52.490Z,5.42
2023-02-03T00:39:53.084Z,5.42
2023-02-03T00:40:52.435Z,5.45
2023-02-03T00:41:52.438Z,5.42
2023-02-03T00:42:52.432Z,5.42
2023-02-03T00:43:52.375Z,5.42
2023-02-03T00:44:52.372Z,5.42
2023-02-03T00:45:52.426Z,5.42
2023-02-03T00:46:52.364Z,5.41
2023-02-03T00:47:52.335Z,5.42
2023-02-03T00:48:52.359Z,5.41
2023-02-03T00:49:52.325Z,5.42
2023-02-03T00:50:52.322Z,5.42
2023-02-03T00:51:52.334Z,5.42
2023-02-03T00:52:52.317Z,5.42
2023-02-03T00:53:52.267Z,5.41
2023-02-03T00:54:52.262Z,5.41
2023-02-03T00:55:52.242Z,5.41
2023-02-03T00:56:52.242Z,5.38
2023-02-03T00:57:52.255Z,5.38
2023-02-03T00:58:52.208Z,5.42
2023-02-03T00:59:52.200Z,5.44
2023-02-03T01:00:52.211Z,5.44
2023-02-03T01:01:52.213Z,5.44
2023-02-03T01:02:52.162Z,5.45
2023-02-03T01:03:52.179Z,5.47
2023-02-03T01:04:52.143Z,5.45
2023-02-03T01:05:52.142Z,5.49
2023-02-03T01:06:52.124Z,5.48
2023-02-03T01:07:52.125Z,5.49
2023-02-03T01:08:52.120Z,5.49
2023-02-03T01:09:52.113Z,5.49
2023-02-03T01:10:52.079Z,5.49
2023-02-03T01:11:52.081Z,5.48
2023-02-03T01:12:52.067Z,5.48
2023-02-03T01:13:52.048Z,5.48
2023-02-03T01:14:52.041Z,5.49
2023-02-03T01:15:52.055Z,5.45
2023-02-03T01:16:52.203Z,5.47
2023-02-03T01:17:52.072Z,5.45
2023-02-03T01:18:52.102Z,5.45
2023-02-03T01:19:51.988Z,5.47
2023-02-03T01:20:51.969Z,5.44
2023-02-03T01:21:51.983Z,5.44
2023-02-03T01:22:51.951Z,5.42
2023-02-03T01:23:51.947Z,5.44
2023-02-03T01:24:51.928Z,5.45
2023-02-03T01:25:51.924Z,5.44
2023-02-03T01:26:51.918Z,5.45
2023-02-03T01:27:51.998Z,5.44
2023-02-03T01:28:51.902Z,5.47
2023-02-03T01:29:51.895Z,5.45
2023-02-03T01:30:52.871Z,5.47
2023-02-03T01:31:52.052Z,5.47
2023-02-03T01:32:51.856Z,5.47
2023-02-03T01:33:51.838Z,5.45
2023-02-03T01:34:51.825Z,5.47
2023-02-03T01:35:51.819Z,5.45
2023-02-03T01:36:51.818Z,5.47
2023-02-03T01:37:51.792Z,5.47
2023-02-03T01:38:51.795Z,5.47
2023-02-03T01:39:51.779Z,5.47
2023-02-03T01:40:51.759Z,5.47
2023-02-03T01:41:51.782Z,5.45
2023-02-03T01:42:51.766Z,5.44
2023-02-03T01:43:51.729Z,5.47
2023-02-03T01:44:51.714Z,5.48
2023-02-03T01:45:51.759Z,5.48
2023-02-03T01:46:51.699Z,5.47
2023-02-03T01:47:51.690Z,5.47
2023-02-03T01:48:51.692Z,5.47
2023-02-03T01:49:51.671Z,5.48
2023-02-03T01:50:51.648Z,5.47
2023-02-03T01:51:51.689Z,5.48
2023-02-03T01:52:51.643Z,5.48
2023-02-03T01:53:51.657Z,5.49
2023-02-03T01:54:51.675Z,5.52
2023-02-03T01:55:51.604Z,5.52
2023-02-03T01:56:51.588Z,5.52
2023-02-03T01:57:51.584Z,5.52
2023-02-03T01:58:51.564Z,5.52
2023-02-03T01:59:51.562Z,5.52
2023-02-03T02:00:51.557Z,5.52
2023-02-03T02:01:51.536Z,5.49
2023-02-03T02:02:51.539Z,5.52
2023-02-03T02:03:51.529Z,5.49
2023-02-03T02:04:51.533Z,5.49
2023-02-03T02:05:52.499Z,5.48
2023-02-03T02:06:51.501Z,5.48
2023-02-03T02:07:51.486Z,5.49
2023-02-03T02:08:51.460Z,5.49
2023-02-03T02:09:51.458Z,5.48
2023-02-03T02:10:51.461Z,5.51
2023-02-03T02:11:51.428Z,5.49
2023-02-03T02:12:51.422Z,5.49
2023-02-03T02:13:51.406Z,5.49
2023-02-03T02:14:51.393Z,5.49
2023-02-03T02:15:51.442Z,5.48
2023-02-03T02:16:51.395Z,5.48
2023-02-03T02:17:51.364Z,5.48
2023-02-03T02:18:51.354Z,5.48
2023-02-03T02:19:51.361Z,5.47
2023-02-03T02:20:51.334Z,5.48
2023-02-03T02:21:51.323Z,5.48
2023-02-03T02:22:51.321Z,5.47
2023-02-03T02:23:51.303Z,5.47
2023-02-03T02:24:51.294Z,5.48
2023-02-03T02:25:51.282Z,5.48
2023-02-03T02:26:51.267Z,5.49
2023-02-03T02:27:51.333Z,5.49
2023-02-03T02:28:51.254Z,5.51
2023-02-03T02:29:51.324Z,5.49
2023-02-03T02:30:51.284Z,5.49
2023-02-03T02:31:51.518Z,5.48
2023-02-03T02:32:51.348Z,5.49
2023-02-03T02:33:51.353Z,5.48
2023-02-03T02:34:51.297Z,5.49
2023-02-03T02:35:51.181Z,5.51
2023-02-03T02:36:51.158Z,5.56
2023-02-03T02:37:51.164Z,5.52
2023-02-03T02:38:51.165Z,5.55
2023-02-03T02:39:51.132Z,5.55
2023-02-03T02:40:51.113Z,5.55
2023-02-03T02:41:51.104Z,5.56
2023-02-03T02:42:51.106Z,5.56
2023-02-03T02:43:51.110Z,5.55
2023-02-03T02:44:51.089Z,5.55
2023-02-03T02:45:51.088Z,5.52
2023-02-03T02:46:51.082Z,5.56
2023-02-03T02:47:51.083Z,5.52
2023-02-03T02:48:51.064Z,5.55
2023-02-03T02:49:51.029Z,5.55
2023-02-03T02:50:51.031Z,5.55
2023-02-03T02:51:50.999Z,5.55
2023-02-03T02:52:50.986Z,5.52
2023-02-03T02:53:50.981Z,5.52
2023-02-03T02:54:50.976Z,5.55
2023-02-03T02:55:50.955Z,5.55
2023-02-03T02:56:50.957Z,5.56
2023-02-03T02:57:50.938Z,5.56
2023-02-03T02:58:50.929Z,5.58
2023-02-03T02:59:50.937Z,5.58
2023-02-03T03:00:50.901Z,5.60
2023-02-03T03:01:50.965Z,5.60
2023-02-03T03:02:50.878Z,5.59
2023-02-03T03:03:50.870Z,5.59
2023-02-03T03:04:51.062Z,5.59
2023-02-03T03:05:50.856Z,5.58
2023-02-03T03:06:50.840Z,5.56
2023-02-03T03:07:50.838Z,5.56
2023-02-03T03:08:50.812Z,5.58
2023-02-03T03:09:50.842Z,5.55
2023-02-03T03:10:50.810Z,5.55
2023-02-03T03:11:50.794Z,5.55
2023-02-03T03:12:50.852Z,5.55
2023-02-03T03:13:50.945Z,5.56
2023-02-03T03:14:50.748Z,5.56
2023-02-03T03:15:50.854Z,5.56
2023-02-03T03:16:50.739Z,5.55
2023-02-03T03:17:50.719Z,5.56
2023-02-03T03:18:50.705Z,5.55
2023-02-03T03:19:50.693Z,5.56
2023-02-03T03:20:50.679Z,5.56
2023-02-03T03:21:50.704Z,5.58
2023-02-03T03:22:50.744Z,5.58
2023-02-03T03:23:50.675Z,5.56
2023-02-03T03:24:50.655Z,5.56
2023-02-03T03:25:50.629Z,5.58
2023-02-03T03:26:50.683Z,5.58
2023-02-03T03:27:50.680Z,5.58
2023-02-03T03:28:50.602Z,5.58
2023-02-03T03:29:50.592Z,5.56
2023-02-03T03:30:50.713Z,5.55
2023-02-03T03:31:50.660Z,5.52
2023-02-03T03:32:50.573Z,5.55
2023-02-03T03:33:50.548Z,5.55
2023-02-03T03:34:50.535Z,5.55
2023-02-03T03:35:50.524Z,5.58
2023-02-03T03:36:50.542Z,5.56
2023-02-03T03:37:50.517Z,5.56
2023-02-03T03:38:50.483Z,5.58
2023-02-03T03:39:50.487Z,5.58
2023-02-03T03:40:50.467Z,5.58
2023-02-03T03:41:50.465Z,5.58
2023-02-03T03:42:50.473Z,5.58
2023-02-03T03:43:50.437Z,5.59
2023-02-03T03:44:50.428Z,5.60
2023-02-03T03:45:50.413Z,5.60
2023-02-03T03:46:50.554Z,5.59
2023-02-03T03:47:50.481Z,5.59
2023-02-03T03:48:50.482Z,5.59
2023-02-03T03:49:50.386Z,5.56
2023-02-03T03:50:50.445Z,5.58
2023-02-03T03:51:50.458Z,5.56
2023-02-03T03:52:50.433Z,5.58
2023-02-03T03:53:50.325Z,5.56
2023-02-03T03:54:50.321Z,5.55
2023-02-03T03:55:50.306Z,5.56
2023-02-03T03:56:50.296Z,5.58
2023-02-03T03:57:50.277Z,5.58
2023-02-03T03:58:50.264Z,5.56
2023-02-03T03:59:50.297Z,5.58
2023-02-03T04:00:50.253Z,5.58
2023-02-03T04:01:50.628Z,5.58
2023-02-03T04:02:50.412Z,5.59
2023-02-03T04:03:50.268Z,5.58
2023-02-03T04:04:50.227Z,5.58
2023-02-03T04:05:50.203Z,5.58
2023-02-03T04:06:50.199Z,5.58
2023-02-03T04:07:50.179Z,5.56
2023-02-03T04:08:50.156Z,5.55
2023-02-03T04:09:50.146Z,5.55
2023-02-03T04:10:50.137Z,5.56
2023-02-03T04:11:50.128Z,5.56
2023-02-03T04:12:50.133Z,5.56
2023-02-03T04:13:50.111Z,5.55
2023-02-03T04:14:50.092Z,5.55
2023-02-03T04:15:50.126Z,5.56
2023-02-03T04:16:50.070Z,5.56
2023-02-03T04:17:50.074Z,5.55
2023-02-03T04:18:50.064Z,5.56
2023-02-03T04:19:50.043Z,5.55
2023-02-03T04:20:50.028Z,5.55
2023-02-03T04:21:50.031Z,5.55
2023-02-03T04:22:50.034Z,5.55
2023-02-03T04:23:50.011Z,5.52
2023-02-03T04:24:49.995Z,5.55
2023-02-03T04:25:49.977Z,5.58
2023-02-03T04:26:49.962Z,5.58
2023-02-03T04:27:49.989Z,5.56
2023-02-03T04:28:50.007Z,5.58
2023-02-03T04:29:50.089Z,5.58
2023-02-03T04:30:49.958Z,5.59
2023-02-03T04:31:50.006Z,5.59
2023-02-03T04:32:49.911Z,5.59
2023-02-03T04:33:49.884Z,5.60
2023-02-03T04:34:49.894Z,5.63
2023-02-03T04:35:49.892Z,5.62
2023-02-03T04:36:49.855Z,5.63
2023-02-03T04:37:49.844Z,5.63
2023-02-03T04:38:49.848Z,5.66
2023-02-03T04:39:49.818Z,5.65
2023-02-03T04:40:50.035Z,5.63
2023-02-03T04:41:49.823Z,5.63
2023-02-03T04:42:49.816Z,5.63
2023-02-03T04:43:49.788Z,5.65
2023-02-03T04:44:49.772Z,5.65
2023-02-03T04:45:49.802Z,5.63
2023-02-03T04:46:49.764Z,5.65
2023-02-03T04:47:49.923Z,5.62
2023-02-03T04:48:49.731Z,5.62
2023-02-03T04:49:49.712Z,5.60
2023-02-03T04:50:49.701Z,5.62
2023-02-03T04:51:49.725Z,5.65
2023-02-03T04:52:49.681Z,5.65
2023-02-03T04:53:49.670Z,5.63
2023-02-03T04:54:49.681Z,5.65
2023-02-03T04:55:49.665Z,5.66
2023-02-03T04:56:49.647Z,5.63
2023-02-03T04:57:49.641Z,5.65
2023-02-03T04:58:49.627Z,5.65
2023-02-03T04:59:49.639Z,5.63
2023-02-03T05:00:49.643Z,5.66
2023-02-03T05:01:49.580Z,5.63
2023-02-03T05:02:49.674Z,5.63
2023-02-03T05:03:49.561Z,5.62
2023-02-03T05:04:49.584Z,5.65
2023-02-03T05:05:49.540Z,5.60
2023-02-03T05:06:49.597Z,5.60
2023-02-03T05:07:49.621Z,5.60
2023-02-03T05:08:50.143Z,5.60
2023-02-03T05:09:49.494Z,5.58
2023-02-03T05:10:49.488Z,5.60
2023-02-03T05:11:49.477Z,5.58
2023-02-03T05:12:49.463Z,5.59
2023-02-03T05:13:49.467Z,5.59
2023-02-03T05:14:49.440Z,5.58
2023-02-03T05:15:49.432Z,5.58
2023-02-03T05:16:49.465Z,5.58
2023-02-03T05:17:49.406Z,5.58
2023-02-03T05:18:49.408Z,5.58
2023-02-03T05:19:49.405Z,5.59
2023-02-03T05:20:50.007Z,5.59
2023-02-03T05:21:49.497Z,5.60
2023-02-03T05:22:49.916Z,5.60
2023-02-03T05:23:50.523Z,5.60
2023-02-03T05:24:49.374Z,5.60
2023-02-03T05:25:49.762Z,5.59
2023-02-03T05:26:49.324Z,5.60
2023-02-03T05:27:49.357Z,5.59
2023-02-03T05:28:50.586Z,5.60
2023-02-03T05:29:49.277Z,5.62
2023-02-03T05:30:49.296Z,5.63
2023-02-03T05:31:49.365Z,5.60
2023-02-03T05:32:49.267Z,5.60
2023-02-03T05:33:49.269Z,5.60
2023-02-03T05:34:49.231Z,5.60
2023-02-03T05:35:49.212Z,5.60
2023-02-03T05:36:49.218Z,5.60
2023-02-03T05:37:49.245Z,5.60
2023-02-03T05:38:49.193Z,5.60
2023-02-03T05:39:49.172Z,5.60
2023-02-03T05:40:49.171Z,5.60
2023-02-03T05:41:49.185Z,5.60
2023-02-03T05:42:49.151Z,5.60
2023-02-03T05:43:49.132Z,5.59
2023-02-03T05:44:49.168Z,5.60
2023-02-03T05:45:49.265Z,5.62
2023-02-03T05:46:49.101Z,5.62
2023-02-03T05:47:49.109Z,5.60
2023-02-03T05:48:51.717Z,5.60
2023-02-03T05:49:49.077Z,5.62
2023-02-03T05:50:49.100Z,5.60
2023-02-03T05:51:49.061Z,5.59
2023-02-03T05:52:49.596Z,5.59
2023-02-03T05:53:49.065Z,5.60
2023-02-03T05:54:49.022Z,5.62
2023-02-03T05:55:49.644Z,5.62
2023-02-03T05:56:49.007Z,5.62
2023-02-03T05:57:49.079Z,5.62
2023-02-03T05:58:48.996Z,5.62
2023-02-03T05:59:48.974Z,5.62
2023-02-03T06:00:48.962Z,5.62
2023-02-03T06:01:48.947Z,5.62
2023-02-03T06:02:48.932Z,5.60
2023-02-03T06:03:49.028Z,5.60
2023-02-03T06:04:49.037Z,5.60
2023-02-03T06:05:48.897Z,5.60
2023-02-03T06:06:48.899Z,5.59
2023-02-03T06:07:48.888Z,5.59
2023-02-03T06:08:48.886Z,5.58
2023-02-03T06:09:48.864Z,5.59
2023-02-03T06:10:48.854Z,5.60
2023-02-03T06:11:48.840Z,5.62
2023-02-03T06:12:48.843Z,5.60
2023-02-03T06:13:48.824Z,5.60
2023-02-03T06:14:48.816Z,5.60
2023-02-03T06:15:48.796Z,5.60
2023-02-03T06:16:48.925Z,5.60
2023-02-03T06:17:48.780Z,5.62
2023-02-03T06:18:48.769Z,5.60
2023-02-03T06:19:48.758Z,5.60
2023-02-03T06:20:48.763Z,5.60
2023-02-03T06:21:48.747Z,5.59
2023-02-03T06:22:48.799Z,5.59
2023-02-03T06:23:48.813Z,5.62
2023-02-03T06:24:48.817Z,5.60
2023-02-03T06:25:48.688Z,5.62
2023-02-03T06:26:48.705Z,5.59
2023-02-03T06:27:48.753Z,5.62
2023-02-03T06:28:48.671Z,5.62
2023-02-03T06:29:48.645Z,5.63
2023-02-03T06:30:48.764Z,5.62
2023-02-03T06:31:48.750Z,5.62
2023-02-03T06:32:48.644Z,5.62
2023-02-03T06:33:48.634Z,5.65
2023-02-03T06:34:48.596Z,5.63
2023-02-03T06:35:48.614Z,5.63
2023-02-03T06:36:48.593Z,5.63
2023-02-03T06:37:48.557Z,5.65
2023-02-03T06:38:48.574Z,5.62
2023-02-03T06:39:48.559Z,5.63
2023-02-03T06:40:48.545Z,5.62
2023-02-03T06:41:48.520Z,5.60
2023-02-03T06:42:48.530Z,5.62
2023-02-03T06:43:48.501Z,5.62
2023-02-03T06:44:48.489Z,5.62
2023-02-03T06:45:48.536Z,5.60
2023-02-03T06:46:48.467Z,5.60
2023-02-03T06:47:48.461Z,5.59
2023-02-03T06:48:48.441Z,5.59
2023-02-03T06:49:48.445Z,5.62
2023-02-03T06:50:48.892Z,5.62
2023-02-03T06:51:48.422Z,5.62
2023-02-03T06:52:48.405Z,5.62
2023-02-03T06:53:48.385Z,5.63
2023-02-03T06:54:48.347Z,5.63
2023-02-03T06:55:48.316Z,5.62
2023-02-03T06:56:48.304Z,5.63
2023-02-03T06:57:48.286Z,5.62
2023-02-03T06:58:48.279Z,5.63
2023-02-03T06:59:48.291Z,5.66
2023-02-03T07:00:48.261Z,5.62
2023-02-03T07:01:48.365Z,5.62
2023-02-03T07:02:48.358Z,5.65
2023-02-03T07:03:48.358Z,5.65
2023-02-03T07:04:48.221Z,5.65
2023-02-03T07:05:48.216Z,5.65
2023-02-03T07:06:48.194Z,5.66
2023-02-03T07:07:48.179Z,5.65
2023-02-03T07:08:48.175Z,5.65
2023-02-03T07:09:48.155Z,5.66
2023-02-03T07:10:48.929Z,5.65
2023-02-03T07:11:48.141Z,5.65
2023-02-03T07:12:48.148Z,5.65
2023-02-03T07:13:49.030Z,5.65
2023-02-03T07:14:48.117Z,5.62
2023-02-03T07:15:48.148Z,5.63
2023-02-03T07:16:48.144Z,5.65
2023-02-03T07:17:48.117Z,5.66
2023-02-03T07:18:48.485Z,5.66
2023-02-03T07:19:48.046Z,5.66
2023-02-03T07:20:48.056Z,5.66
2023-02-03T07:21:48.028Z,5.66
2023-02-03T07:22:48.020Z,5.65
2023-02-03T07:23:48.004Z,5.65
2023-02-03T07:24:48.020Z,5.66
2023-02-03T07:25:47.982Z,5.65
2023-02-03T07:26:47.985Z,5.65
2023-02-03T07:27:47.974Z,5.66
2023-02-03T07:28:47.954Z,5.66
2023-02-03T07:29:47.941Z,5.66
2023-02-03T07:30:48.128Z,5.67
2023-02-03T07:31:48.055Z,5.69
2023-02-03T07:32:47.925Z,5.67
2023-02-03T07:33:47.900Z,5.67
2023-02-03T07:34:47.930Z,5.70
2023-02-03T07:35:47.879Z,5.70
2023-02-03T07:36:47.874Z,5.69
2023-02-03T07:37:47.869Z,5.69
2023-02-03T07:38:47.867Z,5.69
2023-02-03T07:39:47.853Z,5.69
2023-02-03T07:40:47.904Z,5.69
2023-02-03T07:41:47.906Z,5.70
2023-02-03T07:42:47.823Z,5.69
2023-02-03T07:43:47.794Z,5.70
2023-02-03T07:44:47.788Z,5.70
2023-02-03T07:45:48.055Z,5.70
2023-02-03T07:46:47.875Z,5.69
2023-02-03T07:47:47.751Z,5.70
2023-02-03T07:48:47.764Z,5.69
2023-02-03T07:49:47.737Z,5.67
2023-02-03T07:50:47.750Z,5.67
2023-02-03T07:51:47.749Z,5.69
2023-02-03T07:52:48.550Z,5.69
2023-02-03T07:53:47.701Z,5.70
2023-02-03T07:54:48.435Z,5.69
2023-02-03T07:55:47.692Z,5.67
2023-02-03T07:56:47.699Z,5.69
2023-02-03T07:57:47.650Z,5.70
2023-02-03T07:58:47.643Z,5.70
2023-02-03T07:59:47.627Z,5.73
2023-02-03T08:00:47.635Z,5.73
2023-02-03T08:01:47.690Z,5.73
2023-02-03T08:02:47.601Z,5.73
2023-02-03T08:03:47.589Z,5.70
2023-02-03T08:04:47.595Z,5.73
2023-02-03T08:05:47.564Z,5.73
2023-02-03T08:06:47.584Z,5.70
2023-02-03T08:07:47.557Z,5.69
2023-02-03T08:08:47.544Z,5.70
2023-02-03T08:09:47.543Z,5.70
2023-02-03T08:10:47.520Z,5.69
2023-02-03T08:11:47.502Z,5.70
2023-02-03T08:12:47.507Z,5.73
2023-02-03T08:13:47.490Z,5.73
2023-02-03T08:14:47.474Z,5.75
2023-02-03T08:15:47.503Z,5.77
2023-02-03T08:16:47.453Z,5.74
2023-02-03T08:17:47.478Z,5.75
2023-02-03T08:18:47.448Z,5.75
2023-02-03T08:19:47.483Z,5.78
2023-02-03T08:20:47.430Z,5.77
2023-02-03T08:21:47.473Z,5.78
2023-02-03T08:22:47.399Z,5.77
2023-02-03T08:23:47.393Z,5.77
2023-02-03T08:24:47.374Z,5.77
2023-02-03T08:25:47.358Z,5.78
2023-02-03T08:26:47.350Z,5.75
2023-02-03T08:27:47.363Z,5.77
2023-02-03T08:28:47.331Z,5.77
2023-02-03T08:29:47.356Z,5.74
2023-02-03T08:30:47.594Z,5.74
2023-02-03T08:31:47.594Z,5.75
2023-02-03T08:32:47.304Z,5.74
2023-02-03T08:33:48.066Z,5.77
2023-02-03T08:34:47.285Z,5.78
2023-02-03T08:35:47.283Z,5.80
2023-02-03T08:36:48.062Z,5.80
2023-02-03T08:37:47.254Z,5.78
2023-02-03T08:38:47.224Z,5.78
2023-02-03T08:39:47.219Z,5.80
2023-02-03T08:40:47.203Z,5.78
2023-02-03T08:41:47.198Z,5.77
2023-02-03T08:42:47.201Z,5.77
2023-02-03T08:43:47.176Z,5.77
2023-02-03T08:44:47.158Z,5.77
2023-02-03T08:45:47.190Z,5.78
2023-02-03T08:46:47.143Z,5.77
2023-02-03T08:47:47.133Z,5.78
2023-02-03T08:48:47.134Z,5.78
2023-02-03T08:49:47.118Z,5.78
2023-02-03T08:50:47.124Z,5.80
2023-02-03T08:51:47.797Z,5.78
2023-02-03T08:52:47.081Z,5.77
2023-02-03T08:53:47.070Z,5.78
2023-02-03T08:54:47.060Z,5.78
2023-02-03T08:55:47.050Z,5.80
2023-02-03T08:56:47.053Z,5.80
2023-02-03T08:57:47.028Z,5.81
2023-02-03T08:58:47.012Z,5.80
2023-02-03T08:59:47.051Z,5.81
2023-02-03T09:00:47.673Z,5.81
2023-02-03T09:01:46.989Z,5.81
2023-02-03T09:02:47.001Z,5.84
2023-02-03T09:03:46.965Z,5.85
2023-02-03T09:04:47.023Z,5.84
2023-02-03T09:05:46.957Z,5.87
2023-02-03T09:06:46.941Z,5.85
2023-02-03T09:07:46.921Z,5.85
2023-02-03T09:08:46.910Z,5.87
2023-02-03T09:09:46.922Z,5.87
2023-02-03T09:10:46.913Z,5.85
2023-02-03T09:11:46.909Z,5.88
2023-02-03T09:12:46.873Z,5.85
2023-02-03T09:13:47.443Z,5.85
2023-02-03T09:14:46.866Z,5.85
2023-02-03T09:15:46.840Z,5.84
2023-02-03T09:16:46.881Z,5.85
2023-02-03T09:17:46.818Z,5.87
2023-02-03T09:18:46.810Z,5.84
2023-02-03T09:19:46.840Z,5.87
2023-02-03T09:20:46.807Z,5.87
2023-02-03T09:21:48.318Z,5.85
2023-02-03T09:22:46.781Z,5.84
2023-02-03T09:23:46.755Z,5.85
2023-02-03T09:24:46.744Z,5.87
2023-02-03T09:25:49.389Z,5.87
2023-02-03T09:26:46.725Z,5.87
2023-02-03T09:27:46.845Z,5.87
2023-02-03T09:28:46.701Z,5.90
2023-02-03T09:29:46.701Z,5.88
2023-02-03T09:30:46.694Z,5.88
2023-02-03T09:31:46.789Z,5.87
2023-02-03T09:32:46.656Z,5.90
2023-02-03T09:33:46.670Z,5.88
2023-02-03T09:34:46.639Z,5.88
2023-02-03T09:35:46.646Z,5.87
2023-02-03T09:36:46.670Z,5.88
2023-02-03T09:37:46.648Z,5.88
2023-02-03T09:38:46.695Z,5.90
2023-02-03T09:39:46.606Z,5.90
2023-02-03T09:40:46.573Z,5.90
2023-02-03T09:41:46.573Z,5.90
2023-02-03T09:42:46.584Z,5.88
2023-02-03T09:43:46.561Z,5.88
2023-02-03T09:44:46.590Z,5.88
2023-02-03T09:45:46.582Z,5.90
2023-02-03T09:46:46.507Z,5.90
2023-02-03T09:47:46.515Z,5.92
2023-02-03T09:48:46.493Z,5.95
2023-02-03T09:49:46.516Z,5.93
2023-02-03T09:50:46.504Z,5.93
2023-02-03T09:51:46.496Z,5.93
2023-02-03T09:52:46.465Z,5.95
2023-02-03T09:53:46.466Z,5.96
2023-02-03T09:54:46.426Z,5.96
2023-02-03T09:55:46.429Z,5.95
2023-02-03T09:56:46.497Z,5.95
2023-02-03T09:57:46.396Z,5.95
2023-02-03T09:58:46.387Z,5.96
2023-02-03T09:59:46.393Z,5.98
2023-02-03T10:00:46.361Z,5.98
2023-02-03T10:01:46.354Z,5.98
2023-02-03T10:02:46.418Z,5.98
2023-02-03T10:03:46.354Z,5.98
2023-02-03T10:04:46.334Z,5.98
2023-02-03T10:05:46.330Z,5.99
2023-02-03T10:06:46.300Z,5.99
2023-02-03T10:07:46.295Z,6.01
2023-02-03T10:08:46.281Z,6.01
2023-02-03T10:09:46.290Z,6.01
2023-02-03T10:10:46.273Z,6.02
2023-02-03T10:11:46.262Z,6.02
2023-02-03T10:12:46.254Z,6.02
2023-02-03T10:13:46.343Z,6.03
2023-02-03T10:14:46.225Z,6.03
2023-02-03T10:15:46.290Z,6.03
2023-02-03T10:16:46.258Z,6.06
2023-02-03T10:17:46.328Z,6.05
2023-02-03T10:18:46.187Z,6.03
2023-02-03T10:19:46.168Z,6.05
2023-02-03T10:20:46.152Z,6.05
2023-02-03T10:21:46.170Z,6.03
2023-02-03T10:22:46.196Z,6.03
2023-02-03T10:23:46.127Z,6.06
2023-02-03T10:24:46.133Z,6.06
2023-02-03T10:25:46.142Z,6.10
2023-02-03T10:26:46.580Z,6.08
2023-02-03T10:27:46.137Z,6.05
2023-02-03T10:28:46.104Z,6.06
2023-02-03T10:29:46.076Z,6.05
2023-02-03T10:30:46.246Z,6.06
2023-02-03T10:31:46.208Z,6.08
2023-02-03T10:32:46.048Z,6.08
2023-02-03T10:33:46.022Z,6.10
2023-02-03T10:34:46.003Z,6.10
2023-02-03T10:35:46.008Z,6.10
2023-02-03T10:36:45.999Z,6.13
2023-02-03T10:37:46.000Z,6.11
2023-02-03T10:38:45.988Z,6.11
2023-02-03T10:39:45.963Z,6.11
2023-02-03T10:40:46.025Z,6.11
2023-02-03T10:41:45.937Z,6.11
2023-02-03T10:42:45.929Z,6.13
2023-02-03T10:43:45.921Z,6.10
2023-02-03T10:44:45.931Z,6.10
2023-02-03T10:45:45.893Z,6.10
2023-02-03T10:46:45.953Z,6.10
2023-02-03T10:47:45.869Z,6.11
2023-02-03T10:48:45.858Z,6.13
2023-02-03T10:49:45.849Z,6.13
2023-02-03T10:50:45.864Z,6.14
2023-02-03T10:51:46.679Z,6.14
2023-02-03T10:52:45.889Z,6.14
2023-02-03T10:53:45.810Z,6.14
2023-02-03T10:54:45.805Z,6.14
2023-02-03T10:55:45.803Z,6.16
2023-02-03T10:56:45.802Z,6.14
2023-02-03T10:57:45.775Z,6.17
2023-02-03T10:58:45.782Z,6.19
2023-02-03T10:59:45.755Z,6.19
2023-02-03T11:00:45.803Z,6.17
2023-02-03T11:01:45.793Z,6.19
2023-02-03T11:02:45.825Z,6.17
2023-02-03T11:03:45.755Z,6.17
2023-02-03T11:04:45.754Z,6.19
2023-02-03T11:05:45.796Z,6.19
2023-02-03T11:06:45.686Z,6.20
2023-02-03T11:07:45.699Z,6.21
2023-02-03T11:08:45.662Z,6.20
2023-02-03T11:09:45.671Z,6.20
2023-02-03T11:10:45.646Z,6.19
2023-02-03T11:11:45.638Z,6.20
2023-02-03T11:12:45.622Z,6.20
2023-02-03T11:13:45.638Z,6.20
2023-02-03T11:14:45.596Z,6.20
2023-02-03T11:15:45.662Z,6.20
2023-02-03T11:16:45.573Z,6.20
2023-02-03T11:17:45.572Z,6.20
2023-02-03T11:18:45.562Z,6.20
2023-02-03T11:19:45.567Z,6.21
2023-02-03T11:20:45.560Z,6.21
2023-02-03T11:21:45.533Z,6.24
2023-02-03T11:22:45.537Z,6.24
2023-02-03T11:23:45.515Z,6.25
2023-02-03T11:24:45.497Z,6.24
2023-02-03T11:25:45.500Z,6.25
2023-02-03T11:26:45.493Z,6.25
2023-02-03T11:27:45.547Z,6.25
2023-02-03T11:28:45.500Z,6.27
2023-02-03T11:29:45.454Z,6.27
2023-02-03T11:30:45.692Z,6.27
2023-02-03T11:31:45.779Z,6.25
2023-02-03T11:32:45.419Z,6.25
2023-02-03T11:33:45.411Z,6.25
2023-02-03T11:34:45.388Z,6.25
2023-02-03T11:35:45.397Z,6.27
2023-02-03T11:36:45.408Z,6.28
2023-02-03T11:37:45.390Z,6.30
2023-02-03T11:38:45.348Z,6.30
2023-02-03T11:39:45.350Z,6.30
2023-02-03T11:40:45.355Z,6.32
2023-02-03T11:41:45.328Z,6.32
2023-02-03T11:42:45.344Z,6.32
2023-02-03T11:43:45.331Z,6.32
2023-02-03T11:44:45.291Z,6.30
2023-02-03T11:45:45.278Z,6.30
2023-02-03T11:46:45.292Z,6.28
2023-02-03T11:47:45.283Z,6.28
2023-02-03T11:48:45.253Z,6.27
2023-02-03T11:49:45.252Z,6.24
2023-02-03T11:50:45.240Z,6.25
2023-02-03T11:51:45.257Z,6.24
2023-02-03T11:52:45.208Z,6.21
2023-02-03T11:53:56.475Z,6.24
2023-02-03T11:54:45.205Z,6.20
2023-02-03T11:55:45.204Z,6.21
2023-02-03T11:56:45.163Z,6.20
2023-02-03T11:57:45.163Z,6.21
2023-02-03T11:58:45.166Z,6.19
2023-02-03T11:59:45.152Z,6.17
2023-02-03T12:00:45.126Z,6.16
2023-02-03T12:01:45.115Z,6.16
2023-02-03T12:02:45.169Z,6.16
2023-02-03T12:03:45.097Z,6.16
2023-02-03T12:04:45.142Z,6.14
2023-02-03T12:05:45.070Z,6.14
2023-02-03T12:06:45.083Z,6.14
2023-02-03T12:07:45.096Z,6.14
2023-02-03T12:08:45.182Z,6.13
2023-02-03T12:09:45.058Z,6.13
2023-02-03T12:10:45.122Z,6.14
2023-02-03T12:11:45.034Z,6.13
2023-02-03T12:12:45.044Z,6.13
2023-02-03T12:13:45.002Z,6.13
2023-02-03T12:14:44.975Z,6.13
2023-02-03T12:15:45.077Z,6.14
2023-02-03T12:16:45.001Z,6.13
2023-02-03T12:17:44.954Z,6.13
2023-02-03T12:18:44.937Z,6.11
2023-02-03T12:19:45.121Z,6.11
2023-02-03T12:20:45.174Z,6.13
2023-02-03T12:21:44.953Z,6.11
2023-02-03T12:22:44.967Z,6.11
2023-02-03T12:23:44.882Z,6.13
2023-02-03T12:24:44.868Z,6.11
2023-02-03T12:25:44.883Z,6.11
2023-02-03T12:26:44.868Z,6.10
2023-02-03T12:27:45.678Z,6.08
2023-02-03T12:28:44.862Z,6.11
2023-02-03T12:29:44.838Z,6.06
2023-02-03T12:30:44.841Z,6.08
2023-02-03T12:31:44.875Z,6.05
2023-02-03T12:32:44.811Z,6.05
2023-02-03T12:33:44.782Z,6.03
2023-02-03T12:34:44.785Z,6.03
2023-02-03T12:35:44.760Z,6.03
2023-02-03T12:36:44.782Z,6.02
2023-02-03T12:37:44.742Z,6.01
2023-02-03T12:38:44.735Z,5.99
2023-02-03T12:39:44.773Z,6.01
2023-02-03T12:40:44.704Z,5.99
2023-02-03T12:41:44.703Z,5.98
2023-02-03T12:42:44.698Z,5.99
2023-02-03T12:43:44.695Z,5.99
2023-02-03T12:44:44.684Z,5.99
2023-02-03T12:45:44.739Z,5.99
2023-02-03T12:46:44.701Z,5.99
2023-02-03T12:47:44.689Z,6.01
2023-02-03T12:48:44.622Z,6.03
2023-02-03T12:49:44.619Z,6.05
2023-02-03T12:50:44.630Z,6.05
2023-02-03T12:51:44.589Z,6.06
2023-02-03T12:52:44.575Z,6.08
2023-02-03T12:53:44.563Z,6.10
2023-02-03T12:54:44.591Z,6.11
2023-02-03T12:55:44.557Z,6.11
2023-02-03T12:56:44.571Z,6.11
2023-02-03T12:57:44.556Z,6.13
2023-02-03T12:58:44.543Z,6.14
2023-02-03T12:59:45.526Z,6.14
2023-02-03T13:00:44.519Z,6.16
2023-02-03T13:01:44.533Z,6.17
2023-02-03T13:02:44.469Z,6.16
2023-02-03T13:03:44.470Z,6.16
2023-02-03T13:04:44.490Z,6.17
2023-02-03T13:05:44.443Z,6.17
2023-02-03T13:06:44.431Z,6.17
2023-02-03T13:07:44.445Z,6.17
2023-02-03T13:08:44.404Z,6.16
2023-02-03T13:09:44.392Z,6.17
2023-02-03T13:10:44.407Z,6.19
2023-02-03T13:11:44.394Z,6.19
2023-02-03T13:12:44.363Z,6.20
2023-02-03T13:13:44.367Z,6.20
2023-02-03T13:14:44.342Z,6.21
2023-02-03T13:15:44.363Z,6.19
2023-02-03T13:16:44.372Z,6.20
2023-02-03T13:17:44.345Z,6.20
2023-02-03T13:18:44.306Z,6.21